createdAt,value
2018-04-22T00:00:02.962Z,2.50
2018-04-22T00:02:31.002Z,3.67
2018-04-22T00:04:59.038Z,2.80
2018-04-22T00:07:27.854Z,2.40
2018-04-22T00:09:55.920Z,2.83
2018-04-22T00:12:24.012Z,3.33
2018-04-22T00:14:52.579Z,2.20
2018-04-22T00:17:20.627Z,2.40
2018-04-22T00:19:49.450Z,2.87
2018-04-22T00:22:17.499Z,3.40
2018-04-22T00:24:45.587Z,3.67
2018-04-22T00:27:13.651Z,3.20
2018-04-22T00:29:41.721Z,4.80
2018-04-22T00:32:09.750Z,3.37
2018-04-22T00:34:38.601Z,3.23
2018-04-22T00:37:06.669Z,2.70
2018-04-22T00:39:34.742Z,2.70
2018-04-22T00:42:02.799Z,3.30
2018-04-22T00:44:30.838Z,2.60
2018-04-22T00:46:59.655Z,3.17
2018-04-22T00:49:27.689Z,2.67
2018-04-22T00:51:56.533Z,2.97
2018-04-22T00:54:24.591Z,2.90
2018-04-22T00:56:53.392Z,3.77
2018-04-22T00:59:21.459Z,3.97
2018-04-22T01:01:49.538Z,2.50
2018-04-22T01:04:17.595Z,3.30
2018-04-22T01:06:45.629Z,2.90
2018-04-22T01:09:14.462Z,3.70
2018-04-22T01:11:42.506Z,2.80
2018-04-22T01:14:10.582Z,2.80
2018-04-22T01:16:38.631Z,3.97
2018-04-22T01:19:07.437Z,3.00
2018-04-22T01:21:36.275Z,3.60
2018-04-22T01:24:05.904Z,3.70
2018-04-22T01:26:33.978Z,3.60
2018-04-22T01:29:02.017Z,3.70
2018-04-22T01:31:30.146Z,3.73
2018-04-22T01:33:58.221Z,3.23
2018-04-22T01:36:26.263Z,11.60
2018-04-22T01:38:54.345Z,3.50
2018-04-22T01:41:23.149Z,3.77
2018-04-22T01:43:51.212Z,3.87
2018-04-22T01:46:20.055Z,5.57
2018-04-22T01:48:48.100Z,4.00
2018-04-22T01:51:16.163Z,7.20
2018-04-22T01:53:44.971Z,3.43
2018-04-22T01:56:13.001Z,4.03
2018-04-22T01:58:41.817Z,3.10
2018-04-22T02:01:09.875Z,3.50
2018-04-22T02:03:37.945Z,4.30
2018-04-22T02:06:05.978Z,3.80
2018-04-22T02:08:34.071Z,3.70
2018-04-22T02:11:02.094Z,3.70
2018-04-22T02:13:30.157Z,3.47
2018-04-22T02:15:58.275Z,3.37
2018-04-22T02:18:26.295Z,3.50
2018-04-22T02:20:54.367Z,4.03
2018-04-22T02:23:23.164Z,3.33
2018-04-22T02:25:51.299Z,3.90
2018-04-22T02:28:19.397Z,3.40
2018-04-22T02:30:47.451Z,3.53
2018-04-22T02:33:15.477Z,3.90
2018-04-22T02:35:44.326Z,3.60
2018-04-22T02:38:12.397Z,3.97
2018-04-22T02:40:40.446Z,4.50
2018-04-22T02:43:09.153Z,4.20
2018-04-22T02:45:37.201Z,3.80
2018-04-22T02:48:05.323Z,3.90
2018-04-22T02:50:33.379Z,4.20
2018-04-22T02:53:01.544Z,3.57
2018-04-22T02:55:29.604Z,4.37
2018-04-22T02:57:57.674Z,4.50
2018-04-22T03:00:26.858Z,4.40
2018-04-22T03:02:54.926Z,3.87
2018-04-22T03:05:23.777Z,4.00
2018-04-22T03:07:51.811Z,4.47
2018-04-22T03:10:21.009Z,4.87
2018-04-22T03:12:49.060Z,3.83
2018-04-22T03:15:17.130Z,4.60
2018-04-22T03:17:46.545Z,4.23
2018-04-22T03:20:15.353Z,4.83
2018-04-22T03:22:44.189Z,3.87
2018-04-22T03:25:12.214Z,3.73
2018-04-22T03:27:40.266Z,3.73
2018-04-22T03:30:08.331Z,4.23
2018-04-22T03:32:36.381Z,4.50
2018-04-22T03:35:05.218Z,4.60
2018-04-22T03:37:33.285Z,3.93
2018-04-22T03:40:01.456Z,4.97
2018-04-22T03:42:29.544Z,4.37
2018-04-22T03:44:57.565Z,4.50
2018-04-22T03:47:25.636Z,3.97
2018-04-22T03:49:54.077Z,4.80
2018-04-22T03:52:22.129Z,4.37
2018-04-22T03:54:50.223Z,4.33
2018-04-22T03:57:18.282Z,4.50
2018-04-22T03:59:46.358Z,4.47
2018-04-22T04:02:14.393Z,3.77
2018-04-22T04:04:43.631Z,4.60
2018-04-22T04:07:11.669Z,4.90
2018-04-22T04:09:39.712Z,4.20
2018-04-22T04:12:08.530Z,4.37
2018-04-22T04:14:36.634Z,6.63
2018-04-22T04:17:04.683Z,4.77
2018-04-22T04:19:44.685Z,5.57
2018-04-22T04:22:25.302Z,4.90
2018-04-22T04:25:06.112Z,4.47
2018-04-22T04:27:46.543Z,6.10
2018-04-22T04:30:14.589Z,6.30
2018-04-22T04:32:42.651Z,5.40
2018-04-22T04:35:10.702Z,4.77
2018-04-22T04:37:39.513Z,4.30
2018-04-22T04:40:07.571Z,4.60
2018-04-22T04:42:35.625Z,4.77
2018-04-22T04:45:04.448Z,6.03
2018-04-22T04:47:32.494Z,4.70
2018-04-22T04:50:01.311Z,4.63
2018-04-22T04:52:29.351Z,4.70
2018-04-22T04:54:58.191Z,4.80
2018-04-22T04:57:26.250Z,4.23
2018-04-22T04:59:54.322Z,6.13
2018-04-22T05:02:22.400Z,4.83
2018-04-22T05:04:50.477Z,5.10
2018-04-22T05:07:18.530Z,4.63
2018-04-22T05:09:46.586Z,5.30
2018-04-22T05:12:14.650Z,5.07
2018-04-22T05:14:42.689Z,5.00
2018-04-22T05:17:10.753Z,4.80
2018-04-22T05:19:38.839Z,5.03
2018-04-22T05:22:06.980Z,4.80
2018-04-22T05:24:35.801Z,5.30
2018-04-22T05:27:04.605Z,5.40
2018-04-22T05:29:34.061Z,5.83
2018-04-22T05:32:02.101Z,5.70
2018-04-22T05:34:30.204Z,6.10
2018-04-22T05:36:58.253Z,5.73
2018-04-22T05:39:26.331Z,5.07
2018-04-22T05:41:54.398Z,6.90
2018-04-22T05:44:22.455Z,6.90
2018-04-22T05:46:50.541Z,5.73
2018-04-22T05:49:18.677Z,6.90
2018-04-22T05:51:46.881Z,6.10
2018-04-22T05:54:14.941Z,6.33
2018-04-22T05:56:43.011Z,6.80
2018-04-22T05:59:11.068Z,6.73
2018-04-22T06:01:39.933Z,7.00
2018-04-22T06:04:07.967Z,7.90
2018-04-22T06:06:36.019Z,6.90
2018-04-22T06:09:04.102Z,6.33
2018-04-22T06:11:32.149Z,6.90
2018-04-22T06:14:00.214Z,6.67
2018-04-22T06:16:28.266Z,6.20
2018-04-22T06:18:57.290Z,7.27
2018-04-22T06:21:25.334Z,7.77
2018-04-22T06:23:54.145Z,6.57
2018-04-22T06:26:22.213Z,7.37
2018-04-22T06:28:50.253Z,5.77
2018-04-22T06:31:18.316Z,6.83
2018-04-22T06:33:46.378Z,6.70
2018-04-22T06:36:14.414Z,6.20
2018-04-22T06:38:42.477Z,6.73
2018-04-22T06:41:10.537Z,6.73
2018-04-22T06:43:39.354Z,6.57
2018-04-22T06:46:07.971Z,6.83
2018-04-22T06:48:35.990Z,6.37
2018-04-22T06:51:04.050Z,5.80
2018-04-22T06:53:32.151Z,5.53
2018-04-22T06:56:00.167Z,5.90
2018-04-22T06:58:29.724Z,7.03
2018-04-22T07:00:57.781Z,5.80
2018-04-22T07:03:25.840Z,6.33
2018-04-22T07:05:53.911Z,5.90
2018-04-22T07:08:21.976Z,5.53
2018-04-22T07:10:50.823Z,5.67
2018-04-22T07:13:18.963Z,5.73
2018-04-22T07:15:47.080Z,5.57
2018-04-22T07:18:15.128Z,5.87
2018-04-22T07:20:43.275Z,6.00
2018-04-22T07:23:11.338Z,5.60
2018-04-22T07:25:39.399Z,5.60
2018-04-22T07:28:07.473Z,6.60
2018-04-22T07:30:35.559Z,5.43
2018-04-22T07:33:03.601Z,5.00
2018-04-22T07:35:32.434Z,4.97
2018-04-22T07:38:01.246Z,4.70
2018-04-22T07:40:29.286Z,5.33
2018-04-22T07:42:57.366Z,4.90
2018-04-22T07:45:25.394Z,4.63
2018-04-22T07:47:54.216Z,5.57
2018-04-22T07:50:22.311Z,5.00
2018-04-22T07:52:50.318Z,5.57
2018-04-22T07:55:18.379Z,5.23
2018-04-22T07:57:46.441Z,5.67
2018-04-22T08:00:14.474Z,5.40
2018-04-22T08:02:42.951Z,5.00
2018-04-22T08:05:10.985Z,5.77
2018-04-22T08:07:39.835Z,5.80
2018-04-22T08:10:07.879Z,5.10
2018-04-22T08:12:35.945Z,6.17
2018-04-22T08:15:04.020Z,5.30
2018-04-22T08:17:32.046Z,6.40
2018-04-22T08:20:00.512Z,5.17
2018-04-22T08:22:28.567Z,6.03
2018-04-22T08:24:56.642Z,6.70
2018-04-22T08:27:24.681Z,6.10
2018-04-22T08:29:52.758Z,6.40
2018-04-22T08:32:20.811Z,7.90
2018-04-22T08:34:49.636Z,7.43
2018-04-22T08:37:17.695Z,7.17
2018-04-22T08:39:45.722Z,6.80
2018-04-22T08:42:13.789Z,6.27
2018-04-22T08:44:41.854Z,6.83
2018-04-22T08:47:09.902Z,6.80
2018-04-22T08:49:38.025Z,6.93
2018-04-22T08:52:06.073Z,7.97
2018-04-22T08:54:34.110Z,7.00
2018-04-22T08:57:02.196Z,7.57
2018-04-22T08:59:30.226Z,8.27
2018-04-22T09:01:58.362Z,7.90
2018-04-22T09:04:27.196Z,7.30
2018-04-22T09:06:55.236Z,6.97
2018-04-22T09:09:24.815Z,8.37
2018-04-22T09:11:54.374Z,7.47
2018-04-22T09:14:22.537Z,7.17
2018-04-22T09:16:50.556Z,8.43
2018-04-22T09:19:18.684Z,9.27
2018-04-22T09:21:46.768Z,8.70
2018-04-22T09:24:14.807Z,9.40
2018-04-22T09:26:43.639Z,9.10
2018-04-22T09:29:12.476Z,8.83
2018-04-22T09:31:40.520Z,9.87
2018-04-22T09:34:08.573Z,8.73
2018-04-22T09:36:36.644Z,9.57
2018-04-22T09:39:05.658Z,10.27
2018-04-22T09:41:33.692Z,9.70
2018-04-22T09:44:01.763Z,9.80
2018-04-22T09:46:29.821Z,10.63
2018-04-22T09:48:57.865Z,10.87
2018-04-22T09:51:25.953Z,10.73
2018-04-22T09:53:54.785Z,12.23
2018-04-22T09:56:22.851Z,12.67
2018-04-22T09:58:50.924Z,11.13
2018-04-22T10:01:19.993Z,10.60
2018-04-22T10:03:48.784Z,12.70
2018-04-22T10:06:16.880Z,13.73
2018-04-22T10:08:44.930Z,12.50
2018-04-22T10:11:13.001Z,12.33
2018-04-22T10:13:41.034Z,12.37
2018-04-22T10:16:09.098Z,13.20
2018-04-22T10:18:37.161Z,12.57
2018-04-22T10:21:05.212Z,11.70
2018-04-22T10:23:33.293Z,12.80
2018-04-22T10:26:01.386Z,13.03
2018-04-22T10:28:30.210Z,12.77
2018-04-22T10:30:58.276Z,13.00
2018-04-22T10:33:26.324Z,11.73
2018-04-22T10:35:54.426Z,11.97
2018-04-22T10:38:22.497Z,11.73
2018-04-22T10:40:50.504Z,12.40
2018-04-22T10:43:18.590Z,12.00
2018-04-22T10:45:47.321Z,12.60
2018-04-22T10:48:16.133Z,15.10
2018-04-22T10:50:44.199Z,14.23
2018-04-22T10:53:12.267Z,13.93
2018-04-22T10:55:40.332Z,13.00
2018-04-22T10:58:08.431Z,14.60
2018-04-22T11:00:37.230Z,13.53
2018-04-22T11:03:05.288Z,13.20
2018-04-22T11:05:33.368Z,14.30
2018-04-22T11:08:02.190Z,13.30
2018-04-22T11:10:30.231Z,12.97
2018-04-22T11:12:58.303Z,12.37
2018-04-22T11:15:26.370Z,13.87
2018-04-22T11:17:54.422Z,13.50
2018-04-22T11:20:22.497Z,14.10
2018-04-22T11:22:50.550Z,16.10
2018-04-22T11:25:18.600Z,13.60
2018-04-22T11:27:46.662Z,14.10
2018-04-22T11:30:14.768Z,14.70
2018-04-22T11:32:42.837Z,15.07
2018-04-22T11:35:11.658Z,18.10
2018-04-22T11:37:39.797Z,14.83
2018-04-22T11:40:07.856Z,14.37
2018-04-22T11:42:35.877Z,13.97
2018-04-22T11:45:03.986Z,14.90
2018-04-22T11:47:32.048Z,14.70
2018-04-22T11:50:00.092Z,14.53
2018-04-22T11:52:28.189Z,17.47
2018-04-22T11:54:56.250Z,14.60
2018-04-22T11:57:24.293Z,15.17
2018-04-22T11:59:52.396Z,14.33
2018-04-22T12:02:20.474Z,15.50
2018-04-22T12:04:48.838Z,17.43
2018-04-22T12:07:16.925Z,16.77
2018-04-22T12:09:45.763Z,14.97
2018-04-22T12:12:13.833Z,16.43
2018-04-22T12:14:41.902Z,16.40
2018-04-22T12:17:10.734Z,15.57
2018-04-22T12:19:38.822Z,17.47
2018-04-22T12:22:06.899Z,16.13
2018-04-22T12:24:34.955Z,18.17
2018-04-22T12:27:02.981Z,16.03
2018-04-22T12:29:31.069Z,14.37
2018-04-22T12:31:59.152Z,16.93
2018-04-22T12:34:27.961Z,15.60
2018-04-22T12:36:56.034Z,15.67
2018-04-22T12:39:24.113Z,17.33
2018-04-22T12:41:52.154Z,17.67
2018-04-22T12:44:20.221Z,16.37
2018-04-22T12:46:48.321Z,17.57
2018-04-22T12:49:16.410Z,16.23
2018-04-22T12:51:44.476Z,16.60
2018-04-22T12:54:12.542Z,18.73
2018-04-22T12:56:40.581Z,18.37
2018-04-22T12:59:08.678Z,17.10
2018-04-22T13:01:37.661Z,18.27
2018-04-22T13:04:05.711Z,16.23
2018-04-22T13:06:33.782Z,19.40
2018-04-22T13:09:01.825Z,17.90
2018-04-22T13:11:29.904Z,17.00
2018-04-22T13:13:58.718Z,18.20
2018-04-22T13:16:26.818Z,17.60
2018-04-22T13:18:54.915Z,18.90
2018-04-22T13:21:23.754Z,17.50
2018-04-22T13:23:51.826Z,16.63
2018-04-22T13:26:19.921Z,18.50
2018-04-22T13:28:47.981Z,19.40
2018-04-22T13:31:16.013Z,18.33
2018-04-22T13:33:44.895Z,17.63
2018-04-22T13:36:12.991Z,18.27
2018-04-22T13:38:41.050Z,16.83
2018-04-22T13:41:09.140Z,16.67
2018-04-22T13:43:37.283Z,17.40
2018-04-22T13:46:05.297Z,17.13
2018-04-22T13:48:33.369Z,18.67
2018-04-22T13:51:01.496Z,16.50
2018-04-22T13:53:29.522Z,15.97
2018-04-22T13:55:57.621Z,15.50
2018-04-22T13:58:25.645Z,17.53
2018-04-22T14:00:53.731Z,17.60
2018-04-22T14:03:21.774Z,18.27
2018-04-22T14:05:49.920Z,16.43
2018-04-22T14:08:17.937Z,16.93
2018-04-22T14:10:46.005Z,18.37
2018-04-22T14:13:14.101Z,18.87
2018-04-22T14:15:42.172Z,17.53
2018-04-22T14:18:10.227Z,19.07
2018-04-22T14:20:38.285Z,17.93
2018-04-22T14:23:06.366Z,17.70
2018-04-22T14:25:34.440Z,18.00
2018-04-22T14:28:02.486Z,18.43
2018-04-22T14:30:30.565Z,17.60
2018-04-22T14:32:58.626Z,17.67
2018-04-22T14:35:26.683Z,18.13
2018-04-22T14:37:54.753Z,17.77
2018-04-22T14:40:22.799Z,17.17
2018-04-22T14:42:51.661Z,17.70
2018-04-22T14:45:31.693Z,20.33
2018-04-22T14:47:59.718Z,18.50
2018-04-22T14:50:28.548Z,19.63
2018-04-22T14:52:56.690Z,19.40
2018-04-22T14:55:24.690Z,18.63
2018-04-22T14:57:52.783Z,19.13
2018-04-22T15:00:20.855Z,19.17
2018-04-22T15:02:48.941Z,18.70
2018-04-22T15:05:17.017Z,17.43
2018-04-22T15:07:45.053Z,17.47
2018-04-22T15:10:13.158Z,17.80
2018-04-22T15:12:41.226Z,16.80
2018-04-22T15:15:09.313Z,16.03
2018-04-22T15:17:38.117Z,15.90
2018-04-22T15:20:06.214Z,14.70
2018-04-22T15:22:35.029Z,17.10
2018-04-22T15:25:03.110Z,17.73
2018-04-22T15:27:31.140Z,15.30
2018-04-22T15:29:59.302Z,15.60
2018-04-22T15:32:27.320Z,17.47
2018-04-22T15:34:55.377Z,17.50
2018-04-22T15:37:23.474Z,17.30
2018-04-22T15:39:51.511Z,16.07
2018-04-22T15:42:19.574Z,16.50
2018-04-22T15:44:47.638Z,16.23
2018-04-22T15:47:15.713Z,15.80
2018-04-22T15:49:43.767Z,16.87
2018-04-22T15:52:12.576Z,15.53
2018-04-22T15:54:40.629Z,16.20
2018-04-22T15:57:09.462Z,17.33
2018-04-22T15:59:37.521Z,15.47
2018-04-22T16:02:05.590Z,16.07
2018-04-22T16:04:33.650Z,16.63
2018-04-22T16:07:01.709Z,15.03
2018-04-22T16:09:30.528Z,15.87
2018-04-22T16:11:58.580Z,17.73
2018-04-22T16:14:26.727Z,16.07
2018-04-22T16:16:54.681Z,17.00
2018-04-22T16:19:22.770Z,16.30
2018-04-22T16:21:52.334Z,17.37
2018-04-22T16:24:20.422Z,17.50
2018-04-22T16:26:48.488Z,19.87
2018-04-22T16:29:16.702Z,17.20
2018-04-22T16:31:44.713Z,16.50
2018-04-22T16:34:12.798Z,17.90
2018-04-22T16:36:40.936Z,16.30
2018-04-22T16:39:08.974Z,17.73
2018-04-22T16:41:37.821Z,18.00
2018-04-22T16:44:05.916Z,20.73
2018-04-22T16:46:34.089Z,20.37
2018-04-22T16:49:02.201Z,19.30
2018-04-22T16:51:30.275Z,22.70
2018-04-22T16:53:58.393Z,19.20
2018-04-22T16:56:26.527Z,18.60
2018-04-22T16:58:54.589Z,19.67
2018-04-22T17:01:23.441Z,19.00
2018-04-22T17:03:51.552Z,19.90
2018-04-22T17:06:19.595Z,19.60
2018-04-22T17:08:47.665Z,19.90
2018-04-22T17:11:15.722Z,19.57
2018-04-22T17:13:43.766Z,19.00
2018-04-22T17:16:11.841Z,20.30
2018-04-22T17:18:39.898Z,18.63
2018-04-22T17:21:07.946Z,19.33
2018-04-22T17:23:36.030Z,20.67
2018-04-22T17:26:04.083Z,19.30
2018-04-22T17:28:32.901Z,18.47
2018-04-22T17:31:01.042Z,19.90
2018-04-22T17:33:29.083Z,13.40
2018-04-22T17:35:57.205Z,8.77
2018-04-22T17:38:25.639Z,5.90
2018-04-22T17:40:53.693Z,5.80
2018-04-22T17:43:22.543Z,4.77
2018-04-22T17:45:50.583Z,2.70
2018-04-22T17:48:19.394Z,4.23
2018-04-22T17:50:48.237Z,4.60
2018-04-22T17:53:16.321Z,4.90
2018-04-22T17:55:44.378Z,3.90
2018-04-22T17:58:14.493Z,5.40
2018-04-22T18:00:42.550Z,3.60
2018-04-22T18:03:10.601Z,2.50
2018-04-22T18:05:38.656Z,2.80
2018-04-22T18:08:07.462Z,3.07
2018-04-22T18:10:35.520Z,2.60
2018-04-22T18:13:03.567Z,2.87
2018-04-22T18:15:31.637Z,2.60
2018-04-22T18:17:59.731Z,2.93
2018-04-22T18:20:28.558Z,3.50
2018-04-22T18:22:56.607Z,2.90
2018-04-22T18:25:24.644Z,3.53
2018-04-22T18:27:53.471Z,2.27
2018-04-22T18:30:21.549Z,2.50
2018-04-22T18:32:49.594Z,2.80
2018-04-22T18:35:18.434Z,2.67
2018-04-22T18:37:46.463Z,3.00
2018-04-22T18:40:15.354Z,2.37
2018-04-22T18:42:43.387Z,3.23
2018-04-22T18:45:11.447Z,2.60
2018-04-22T18:47:39.560Z,3.17
2018-04-22T18:50:07.631Z,2.30
2018-04-22T18:52:35.626Z,2.03
2018-04-22T18:55:03.682Z,3.07
2018-04-22T18:57:31.729Z,2.70
2018-04-22T19:00:01.130Z,2.43
2018-04-22T19:02:29.157Z,2.80
2018-04-22T19:04:57.218Z,2.80
2018-04-22T19:07:26.096Z,2.40
2018-04-22T19:09:55.064Z,2.60
2018-04-22T19:12:23.093Z,2.43
2018-04-22T19:14:51.146Z,2.87
2018-04-22T19:17:19.239Z,2.43
2018-04-22T19:19:47.282Z,2.50
2018-04-22T19:22:15.358Z,3.90
2018-04-22T19:24:43.503Z,3.20
2018-04-22T19:27:12.335Z,2.63
2018-04-22T19:29:40.378Z,2.90
2018-04-22T19:32:08.432Z,2.40
2018-04-22T19:34:37.638Z,2.30
2018-04-22T19:37:06.097Z,2.80
2018-04-22T19:39:34.878Z,2.47
2018-04-22T19:42:04.837Z,2.40
2018-04-22T19:44:36.542Z,2.50
2018-04-22T19:47:04.615Z,1.70
2018-04-22T19:49:32.673Z,1.87
2018-04-22T19:52:00.754Z,1.80
2018-04-22T19:54:28.806Z,1.80
2018-04-22T19:56:57.645Z,2.20
2018-04-22T19:59:26.461Z,2.03
2018-04-22T20:01:54.529Z,3.20
2018-04-22T20:04:22.608Z,2.03
2018-04-22T20:06:50.749Z,2.53
2018-04-22T20:09:18.765Z,2.47
2018-04-22T20:11:46.826Z,2.17
2018-04-22T20:14:14.940Z,1.93
2018-04-22T20:16:42.989Z,2.60
2018-04-22T20:19:11.029Z,2.07
2018-04-22T20:21:39.102Z,2.20
2018-04-22T20:24:07.130Z,2.00
2018-04-22T20:26:35.959Z,2.27
2018-04-22T20:29:04.009Z,2.83
2018-04-22T20:31:32.076Z,2.47
2018-04-22T20:34:00.122Z,2.67
2018-04-22T20:36:28.148Z,2.77
2018-04-22T20:38:56.256Z,2.63
2018-04-22T20:41:24.293Z,2.63
2018-04-22T20:43:53.516Z,3.03
2018-04-22T20:46:21.597Z,3.40
2018-04-22T20:48:49.615Z,2.87
2018-04-22T20:51:17.756Z,3.07
2018-04-22T20:53:45.802Z,3.57
2018-04-22T20:56:13.924Z,3.10
2018-04-22T20:58:41.999Z,3.40
2018-04-22T21:01:10.810Z,3.33
2018-04-22T21:03:38.854Z,4.50
2018-04-22T21:06:06.939Z,3.10
2018-04-22T21:08:34.979Z,2.83
2018-04-22T21:11:04.969Z,3.73
2018-04-22T21:13:33.042Z,3.30
2018-04-22T21:16:01.086Z,3.80
2018-04-22T21:18:29.159Z,4.10
2018-04-22T21:20:57.220Z,3.80
2018-04-22T21:23:25.268Z,2.87
2018-04-22T21:25:54.293Z,4.27
2018-04-22T21:28:22.366Z,4.17
2018-04-22T21:30:50.483Z,4.03
2018-04-22T21:33:20.117Z,4.50
2018-04-22T21:35:48.194Z,3.60
2018-04-22T21:38:16.276Z,3.57
2018-04-22T21:40:44.332Z,4.30
2018-04-22T21:43:13.150Z,3.63
2018-04-22T21:45:41.199Z,3.83
2018-04-22T21:48:09.250Z,4.30
2018-04-22T21:50:38.083Z,3.83
2018-04-22T21:53:06.130Z,4.53
2018-04-22T21:55:34.214Z,4.87
2018-04-22T21:58:02.266Z,3.77
2018-04-22T22:00:31.109Z,4.93
2018-04-22T22:02:59.146Z,4.87
2018-04-22T22:05:27.225Z,4.80
2018-04-22T22:07:58.073Z,5.17
2018-04-22T22:10:26.142Z,4.57
2018-04-22T22:12:54.214Z,5.23
2018-04-22T22:15:22.270Z,5.20
2018-04-22T22:17:50.303Z,6.50
2018-04-22T22:20:19.133Z,6.00
2018-04-22T22:22:47.213Z,6.20
2018-04-22T22:25:15.261Z,7.17
2018-04-22T22:27:43.371Z,6.70
2018-04-22T22:30:11.374Z,5.97
2018-04-22T22:32:40.210Z,6.10
2018-04-22T22:35:08.918Z,5.83
2018-04-22T22:37:36.957Z,5.67
2018-04-22T22:40:05.222Z,4.87
2018-04-22T22:42:33.298Z,5.60
2018-04-22T22:45:01.359Z,6.10
2018-04-22T22:47:29.422Z,6.60
2018-04-22T22:49:58.243Z,5.00
2018-04-22T22:52:26.306Z,5.90
2018-04-22T22:54:54.362Z,6.50
2018-04-22T22:57:22.443Z,6.60
2018-04-22T22:59:50.501Z,6.80
2018-04-22T23:02:18.550Z,7.07
2018-04-22T23:04:47.363Z,6.00
2018-04-22T23:07:15.477Z,6.07
2018-04-22T23:09:44.301Z,6.67
2018-04-22T23:12:13.282Z,6.13
2018-04-22T23:14:41.345Z,6.53
2018-04-22T23:17:09.424Z,6.47
2018-04-22T23:19:38.316Z,7.20
2018-04-22T23:22:06.375Z,6.43
2018-04-22T23:24:34.462Z,6.20
2018-04-22T23:27:02.546Z,6.47
2018-04-22T23:29:31.378Z,5.97
2018-04-22T23:31:59.439Z,5.87
2018-04-22T23:34:27.473Z,6.20
2018-04-22T23:36:56.316Z,5.40
2018-04-22T23:39:24.370Z,6.40
2018-04-22T23:41:52.460Z,6.37
2018-04-22T23:44:20.505Z,6.60
2018-04-22T23:46:48.569Z,6.40
2018-04-22T23:49:16.635Z,5.73
2018-04-22T23:51:45.442Z,6.27
2018-04-22T23:54:13.494Z,6.60
2018-04-22T23:56:42.309Z,6.80
2018-04-22T23:59:10.460Z,5.90
